createdAt,value
2022-09-21T00:03:01.884Z,39.50
2022-09-21T00:08:06.947Z,39.20
2022-09-21T00:13:13.944Z,39.40
2022-09-21T00:18:17.407Z,39.00
2022-09-21T00:23:21.064Z,38.80
2022-09-21T00:28:25.581Z,38.80
2022-09-21T00:33:28.787Z,39.30
2022-09-21T00:38:31.921Z,39.50
2022-09-21T00:43:37.925Z,39.80
2022-09-21T00:48:42.412Z,39.90
2022-09-21T00:53:45.869Z,40.10
2022-09-21T00:58:53.599Z,40.10
2022-09-21T01:03:57.627Z,40.00
2022-09-21T01:09:00.772Z,39.80
2022-09-21T01:14:29.284Z,39.70
2022-09-21T01:19:58.120Z,39.80
2022-09-21T01:25:11.192Z,39.80
2022-09-21T01:30:18.233Z,39.60
2022-09-21T01:35:25.719Z,39.60
2022-09-21T01:40:35.637Z,39.70
2022-09-21T01:45:44.475Z,39.70
2022-09-21T01:50:51.977Z,39.70
2022-09-21T01:55:58.948Z,40.30
2022-09-21T02:01:06.582Z,39.40
2022-09-21T02:06:11.816Z,39.40
2022-09-21T02:11:15.051Z,39.50
2022-09-21T02:16:35.034Z,39.50
2022-09-21T02:21:48.193Z,39.80
2022-09-21T02:26:57.756Z,39.70
2022-09-21T02:32:08.815Z,39.50
2022-09-21T02:37:19.666Z,39.40
2022-09-21T02:42:28.110Z,39.50
2022-09-21T02:47:37.389Z,39.60
2022-09-21T02:52:43.875Z,40.10
2022-09-21T02:57:49.115Z,40.30
2022-09-21T03:02:53.608Z,40.00
2022-09-21T03:07:56.674Z,39.70
2022-09-21T03:12:59.901Z,39.60
2022-09-21T03:18:05.299Z,39.60
2022-09-21T03:23:08.668Z,39.80
2022-09-21T03:28:12.632Z,40.00
2022-09-21T03:33:17.781Z,40.20
2022-09-21T03:38:21.652Z,40.00
2022-09-21T03:43:25.232Z,40.00
2022-09-21T03:48:29.661Z,40.00
2022-09-21T03:53:32.723Z,39.70
2022-09-21T03:58:35.817Z,39.60
2022-09-21T04:03:40.256Z,39.80
2022-09-21T04:08:43.867Z,39.90
2022-09-21T04:13:51.311Z,40.80
2022-09-21T04:18:56.049Z,40.50
2022-09-21T04:23:59.103Z,40.70
2022-09-21T04:29:02.725Z,40.70
2022-09-21T04:34:07.152Z,40.70
2022-09-21T04:39:10.231Z,40.70
2022-09-21T04:44:13.539Z,40.70
2022-09-21T04:49:17.972Z,40.60
2022-09-21T04:54:21.056Z,40.60
2022-09-21T04:59:24.222Z,40.60
2022-09-21T05:04:28.652Z,40.50
2022-09-21T05:09:49.329Z,40.50
2022-09-21T05:14:52.430Z,40.50
2022-09-21T05:19:56.993Z,40.50
2022-09-21T05:25:00.093Z,40.90
2022-09-21T05:30:03.777Z,40.50
2022-09-21T05:35:19.275Z,40.50
2022-09-21T05:40:22.992Z,41.40
2022-09-21T05:45:28.838Z,40.90
2022-09-21T05:50:54.641Z,41.00
2022-09-21T05:56:00.804Z,42.00
2022-09-21T06:01:21.150Z,41.50
2022-09-21T06:06:25.632Z,42.20
2022-09-21T06:11:29.200Z,41.90
2022-09-21T06:16:39.751Z,41.80
2022-09-21T06:28:07.469Z,42.60
2022-09-21T06:33:11.012Z,42.10
2022-09-21T06:38:14.177Z,41.90
2022-09-21T06:43:19.133Z,42.00
2022-09-21T06:48:22.881Z,42.50
2022-09-21T06:53:26.265Z,42.40
2022-09-21T06:58:31.530Z,42.40
2022-09-21T07:03:34.716Z,43.00
2022-09-21T07:14:04.068Z,42.50
2022-09-21T07:19:11.375Z,43.10
2022-09-21T07:24:15.467Z,42.20
2022-09-21T07:29:20.208Z,42.50
2022-09-21T07:34:23.431Z,43.40
2022-09-21T07:39:27.097Z,43.30
2022-09-21T07:44:31.572Z,43.50
2022-09-21T07:49:35.177Z,43.90
2022-09-21T07:54:38.284Z,43.70
2022-09-21T07:59:42.749Z,43.70
2022-09-21T08:04:45.853Z,44.40
2022-09-21T08:09:50.847Z,44.40
2022-09-21T08:14:55.268Z,44.90
2022-09-21T08:19:58.692Z,45.60
2022-09-21T08:25:02.035Z,45.30
2022-09-21T08:30:08.548Z,45.60
2022-09-21T08:35:11.708Z,46.30
2022-09-21T08:40:17.031Z,45.70
2022-09-21T08:45:23.212Z,45.90
2022-09-21T08:50:35.060Z,46.30
2022-09-21T08:55:38.153Z,46.20
2022-09-21T09:00:43.558Z,45.60
2022-09-21T09:05:52.186Z,45.40
2022-09-21T09:11:07.000Z,44.90
2022-09-21T09:16:20.617Z,44.30
2022-09-21T09:21:31.704Z,44.60
2022-09-21T09:26:42.811Z,44.40
2022-09-21T09:31:49.069Z,43.70
2022-09-21T09:37:00.171Z,43.70
2022-09-21T09:42:38.607Z,43.50
2022-09-21T09:47:52.473Z,42.60
2022-09-21T09:53:00.898Z,41.50
2022-09-21T09:58:04.220Z,41.90
2022-09-21T10:03:17.973Z,41.50
2022-09-21T10:08:43.291Z,40.30
2022-09-21T10:13:49.936Z,40.50
2022-09-21T10:18:58.942Z,40.40
2022-09-21T10:24:05.622Z,39.30
2022-09-21T10:29:21.330Z,39.70
2022-09-21T10:34:27.361Z,37.70
2022-09-21T10:39:31.926Z,38.90
2022-09-21T10:44:39.979Z,39.10
2022-09-21T10:49:48.258Z,37.40
2022-09-21T10:54:55.594Z,36.20
2022-09-21T10:59:59.773Z,37.40
2022-09-21T11:05:10.526Z,37.80
2022-09-21T11:10:21.616Z,35.30
2022-09-21T11:15:40.134Z,35.30
2022-09-21T11:20:49.949Z,34.40
2022-09-21T11:26:01.450Z,35.40
2022-09-21T11:31:22.615Z,35.80
2022-09-21T11:36:34.428Z,35.20
2022-09-21T11:42:00.368Z,35.20
2022-09-21T11:47:12.500Z,35.40
2022-09-21T11:52:32.996Z,34.30
2022-09-21T11:57:44.154Z,33.80
2022-09-21T12:03:38.401Z,34.50
2022-09-21T12:08:56.416Z,35.00
2022-09-21T12:14:08.984Z,33.70
2022-09-21T12:19:20.027Z,33.10
2022-09-21T12:24:31.967Z,33.70
2022-09-21T12:29:39.244Z,33.20
2022-09-21T12:34:44.967Z,34.40
2022-09-21T12:39:53.652Z,33.30
2022-09-21T12:45:01.740Z,32.70
2022-09-21T12:50:16.637Z,33.00
2022-09-21T12:55:36.305Z,32.30
2022-09-21T13:00:46.597Z,31.40
2022-09-21T13:06:17.977Z,32.30
2022-09-21T13:11:24.507Z,31.50
2022-09-21T13:16:30.609Z,32.30
2022-09-21T13:21:34.934Z,33.30
2022-09-21T13:26:42.093Z,31.80
2022-09-21T13:31:57.730Z,31.40
2022-09-21T13:37:31.601Z,30.60
2022-09-21T13:42:49.643Z,31.20
2022-09-21T13:47:55.136Z,29.70
2022-09-21T13:53:01.105Z,32.00
2022-09-21T13:58:08.279Z,31.20
2022-09-21T14:03:24.242Z,30.70
2022-09-21T14:08:32.770Z,29.70
2022-09-21T14:13:41.571Z,30.20
2022-09-21T14:18:46.521Z,30.10
2022-09-21T14:24:20.944Z,31.40
2022-09-21T14:29:29.969Z,29.30
2022-09-21T14:34:37.010Z,29.70
2022-09-21T14:39:44.272Z,30.30
2022-09-21T14:44:51.636Z,30.20
2022-09-21T14:50:15.035Z,30.00
2022-09-21T15:21:04.775Z,29.30
2022-09-21T15:26:11.542Z,29.60
2022-09-21T15:31:15.597Z,29.30
2022-09-21T15:36:25.273Z,30.10
2022-09-21T15:41:40.668Z,28.80
2022-09-21T15:46:46.733Z,28.40
2022-09-21T15:51:54.900Z,29.50
2022-09-21T15:56:58.265Z,29.20
2022-09-21T16:02:12.256Z,30.20
2022-09-21T16:07:27.929Z,29.70
2022-09-21T16:12:42.506Z,29.30
2022-09-21T16:18:01.358Z,29.20
2022-09-21T16:23:12.229Z,28.80
2022-09-21T16:28:46.028Z,29.20
2022-09-21T16:34:21.841Z,29.10
2022-09-21T16:39:27.482Z,29.30
2022-09-21T16:44:40.996Z,30.00
2022-09-21T16:49:44.855Z,30.10
2022-09-21T16:54:49.937Z,30.10
2022-09-21T16:59:53.345Z,29.90
2022-09-21T17:04:56.414Z,30.00
2022-09-21T17:10:01.353Z,30.10
2022-09-21T17:15:05.045Z,29.90
2022-09-21T17:20:18.331Z,30.30
2022-09-21T17:25:22.783Z,29.90
2022-09-21T17:30:28.258Z,30.10
2022-09-21T17:35:34.131Z,30.40
2022-09-21T17:40:39.381Z,30.70
2022-09-21T17:45:50.469Z,31.00
2022-09-21T17:50:54.123Z,30.70
2022-09-21T17:56:00.829Z,31.20
2022-09-21T18:01:08.599Z,31.30
2022-09-21T18:06:12.892Z,31.30
2022-09-21T18:11:34.609Z,31.40
2022-09-21T18:16:46.190Z,31.40
2022-09-21T18:21:53.405Z,31.40
2022-09-21T18:26:59.224Z,31.40
2022-09-21T18:32:17.392Z,31.50
2022-09-21T18:37:32.181Z,31.30
2022-09-21T18:42:43.539Z,31.70
2022-09-21T18:47:54.397Z,31.70
2022-09-21T18:53:10.086Z,31.90
2022-09-21T18:58:16.047Z,31.90
2022-09-21T19:03:19.961Z,31.90
2022-09-21T19:08:29.545Z,32.10
2022-09-21T19:13:44.492Z,32.40
2022-09-21T19:18:59.112Z,32.50
2022-09-21T19:24:08.872Z,32.50
2022-09-21T19:29:38.271Z,32.40
2022-09-21T19:34:41.923Z,32.30
2022-09-21T19:39:45.557Z,32.20
2022-09-21T19:45:05.874Z,32.10
2022-09-21T19:50:17.056Z,32.50
2022-09-21T19:55:40.027Z,32.60
2022-09-21T20:00:46.663Z,32.10
2022-09-21T20:05:57.164Z,32.20
2022-09-21T20:11:07.158Z,32.30
2022-09-21T20:16:27.110Z,32.40
2022-09-21T20:21:38.868Z,33.60
2022-09-21T20:26:42.363Z,32.90
2022-09-21T20:31:48.455Z,32.60
2022-09-21T20:36:51.519Z,32.70
2022-09-21T20:41:54.585Z,32.60
2022-09-21T20:46:59.057Z,32.70
2022-09-21T20:52:03.684Z,32.80
2022-09-21T20:57:06.843Z,32.90
2022-09-21T21:02:12.829Z,32.70
2022-09-21T21:07:15.957Z,33.00
2022-09-21T21:12:19.076Z,32.70
2022-09-21T21:17:23.531Z,32.90
2022-09-21T21:22:26.631Z,33.20
2022-09-21T21:27:29.729Z,33.20
2022-09-21T21:32:34.303Z,33.30
2022-09-21T21:37:37.839Z,33.70
2022-09-21T21:42:40.899Z,33.50
2022-09-21T21:47:45.445Z,33.70
2022-09-21T21:52:50.525Z,34.10
2022-09-21T21:57:53.980Z,34.30
2022-09-21T22:02:58.405Z,34.10
2022-09-21T22:08:01.482Z,34.10
2022-09-21T22:13:07.066Z,34.20
2022-09-21T22:18:11.490Z,34.20
2022-09-21T22:23:15.218Z,34.60
2022-09-21T22:28:18.282Z,34.40
2022-09-21T22:33:23.021Z,34.40
2022-09-21T22:38:29.783Z,34.50
2022-09-21T22:43:33.840Z,34.30
2022-09-21T22:48:38.407Z,34.10
2022-09-21T22:53:41.648Z,34.20
2022-09-21T22:58:45.955Z,34.10
2022-09-21T23:03:52.331Z,34.00
2022-09-21T23:08:59.142Z,34.20
2022-09-21T23:14:02.760Z,34.10
2022-09-21T23:19:15.340Z,34.10
2022-09-21T23:24:19.421Z,34.20
2022-09-21T23:29:22.524Z,34.00
2022-09-21T23:34:27.008Z,34.00
2022-09-21T23:39:30.100Z,34.40
2022-09-21T23:44:33.405Z,34.20
2022-09-21T23:49:37.809Z,34.10
2022-09-21T23:54:40.856Z,34.30
2022-09-21T23:59:43.974Z,34.10
